Weather at B & W Metals Company Heliport

Public forecast

Using degrees Fahrenheit for public forecast. Weather courtesy of forecast.io.

Closest aviation weather report (METAR) to B & W Metals Company Heliport

Closest report is Butler Co Regional Airport - Hogan Field, 1.4 nm (2.6 km) NNE. Retrieved 2021/06/23 01:53 UTC (9 minutes ago):

KHAO 230153Z AUTO 00000KT 9SM CLR 14/12 A3007 RMK AO2 SLP180 T01390122

Closest aviation forecast (TAF) to B & W Metals Company Heliport

Closest forecast is Cincinnati Municipal Airport Lunken Field, 15.4 nm (28.6 km) SSE. Retrieved 2021-06-23 00:36 UTC (1 hour ago):

TAF KLUK 222335Z 2300/2324 VRB03KT P6SM SKC TEMPO 2308/2312 00000KT 4SM BR FM231200 14005KT P6SM BKN250 FM231500 25007KT P6SM SCT150 BKN250